createdAt,value
2019-06-26T04:41:19.248Z,88.12
2019-06-26T04:46:23.687Z,86.93
2019-06-26T04:51:28.086Z,85.42
2019-06-26T04:56:32.465Z,89.72
2019-06-26T05:01:36.895Z,85.53
2019-06-26T05:06:41.295Z,84.07
2019-06-26T05:11:45.689Z,86.55
2019-06-26T05:16:50.159Z,85.42
2019-06-26T05:21:54.567Z,85.80
2019-06-26T05:26:58.968Z,79.25
2019-06-26T05:32:03.348Z,81.55
2019-06-26T05:37:15.044Z,74.15
2019-06-26T05:42:38.813Z,70.92
2019-06-26T05:47:43.265Z,67.65
2019-06-26T05:52:47.734Z,70.90
2019-06-26T05:57:52.167Z,71.42
2019-06-26T06:02:57.195Z,70.22
2019-06-26T06:08:01.622Z,72.17
2019-06-26T06:13:06.004Z,71.42
2019-06-26T06:18:10.506Z,68.00
2019-06-26T06:23:14.878Z,66.87
2019-06-26T06:28:19.762Z,63.38
2019-06-26T06:33:24.155Z,65.78
2019-06-26T06:38:29.336Z,60.43
2019-06-26T06:43:33.808Z,60.03
2019-06-26T06:48:38.295Z,55.00
2019-06-26T06:53:42.855Z,58.17
2019-06-26T06:58:47.260Z,58.45
2019-06-26T07:03:51.655Z,52.03
2019-06-26T07:08:56.048Z,50.73
2019-06-26T07:14:00.438Z,49.83
2019-06-26T07:19:04.890Z,47.33
2019-06-26T07:24:09.279Z,46.42
2019-06-26T07:29:13.679Z,49.38
2019-06-26T07:34:18.154Z,48.60
2019-06-26T07:39:22.646Z,46.00
2019-06-26T07:44:27.111Z,44.85
2019-06-26T07:49:31.520Z,42.90
2019-06-26T07:54:35.910Z,39.98
2019-06-26T07:59:40.302Z,40.33
2019-06-26T08:04:44.704Z,38.13
2019-06-26T08:09:49.094Z,42.88
2019-06-26T08:14:53.490Z,42.78
2019-06-26T08:19:57.903Z,36.58
2019-06-26T08:25:02.301Z,33.98
2019-06-26T08:30:10.366Z,34.25
2019-06-26T08:35:15.284Z,34.67
2019-06-26T08:40:19.826Z,36.35
2019-06-26T08:45:24.308Z,36.53
2019-06-26T08:50:28.827Z,37.67
2019-06-26T08:55:33.226Z,40.63
2019-06-26T09:00:37.617Z,38.00
2019-06-26T09:05:47.843Z,43.10
2019-06-26T09:10:48.144Z,44.70
2019-06-26T09:15:52.603Z,46.55
2019-06-26T09:20:56.992Z,42.83
2019-06-26T09:26:01.391Z,41.75
2019-06-26T09:31:05.861Z,40.90
2019-06-26T09:36:10.242Z,42.15
2019-06-26T09:41:14.633Z,44.53
2019-06-26T09:46:19.039Z,44.25
2019-06-26T09:51:23.525Z,47.20
2019-06-26T09:56:27.940Z,45.75
2019-06-26T10:01:32.366Z,47.27
2019-06-26T10:06:36.765Z,43.75
2019-06-26T10:11:41.154Z,45.52
2019-06-26T10:16:45.534Z,44.75
2019-06-26T10:21:49.919Z,44.50
2019-06-26T10:26:54.305Z,46.05
2019-06-26T10:31:58.717Z,48.30
2019-06-26T10:37:03.170Z,50.23
2019-06-26T10:42:07.603Z,51.95
2019-06-26T10:47:11.980Z,54.15
2019-06-26T10:52:16.371Z,58.25
2019-06-26T10:57:20.757Z,58.92
2019-06-26T11:02:25.209Z,60.80
2019-06-26T11:07:29.612Z,64.00
2019-06-26T11:12:33.996Z,64.47
2019-06-26T11:17:38.376Z,62.88
2019-06-26T11:22:42.769Z,62.80
2019-06-26T11:27:47.153Z,58.17
2019-06-26T11:32:51.611Z,57.95
2019-06-26T11:37:55.990Z,57.27
2019-06-26T11:43:08.078Z,56.02
2019-06-26T11:48:12.755Z,55.58
2019-06-26T11:53:17.139Z,50.55
2019-06-26T11:58:21.557Z,52.65
2019-06-26T12:03:25.954Z,52.15
2019-06-26T12:08:30.850Z,51.02
2019-06-26T12:13:35.292Z,46.48
2019-06-26T12:18:39.666Z,47.50
2019-06-26T12:23:44.102Z,41.50
2019-06-26T12:28:48.517Z,40.23
2019-06-26T12:33:52.905Z,36.38
2019-06-26T12:38:58.868Z,32.25
2019-06-26T12:44:03.376Z,30.25
2019-06-26T12:49:07.744Z,24.05
2019-06-26T12:54:12.215Z,20.02
2019-06-26T12:59:16.596Z,19.65
2019-06-26T13:04:21.013Z,19.45
2019-06-26T13:09:25.390Z,21.82
2019-06-26T13:14:29.792Z,20.30
2019-06-26T13:19:34.248Z,21.10
2019-06-26T13:24:38.667Z,19.10
2019-06-26T13:29:43.025Z,18.02
2019-06-26T13:34:47.449Z,18.85
2019-06-26T13:39:51.824Z,18.05
2019-06-26T13:44:56.223Z,19.27
2019-06-26T13:50:00.614Z,19.65
2019-06-26T13:55:06.322Z,19.05
2019-06-26T14:00:11.923Z,21.20
2019-06-26T14:05:16.485Z,22.07
2019-06-26T14:10:21.014Z,18.70
2019-06-26T14:15:27.388Z,21.73
2019-06-26T14:20:31.823Z,18.20
2019-06-26T14:25:37.299Z,20.90
2019-06-26T14:30:43.345Z,17.17
2019-06-26T14:35:47.776Z,17.48
2019-06-26T14:40:52.189Z,13.65
2019-06-26T14:45:56.559Z,14.75
2019-06-26T14:51:01.031Z,14.15
2019-06-26T14:56:05.426Z,10.90
2019-06-26T15:01:09.790Z,9.45
2019-06-26T15:06:17.005Z,8.90
2019-06-26T15:11:23.265Z,9.60
2019-06-26T15:16:30.360Z,8.23
2019-06-26T15:21:33.846Z,7.53
2019-06-26T15:26:38.229Z,6.87
2019-06-26T15:31:42.615Z,6.30
2019-06-26T15:36:47.085Z,6.22
2019-06-26T15:41:51.548Z,5.83
2019-06-26T15:46:55.931Z,6.03
2019-06-26T15:52:14.116Z,5.35
2019-06-26T15:57:06.608Z,4.47
2019-06-26T16:02:11.019Z,4.37
2019-06-26T16:07:15.407Z,4.40
2019-06-26T16:12:19.778Z,4.28
2019-06-26T16:17:44.796Z,4.90
2019-06-26T16:22:49.233Z,4.60
2019-06-26T16:28:04.646Z,4.40
2019-06-26T16:32:59.834Z,4.05
2019-06-26T16:38:04.216Z,4.00
2019-06-26T16:43:08.698Z,4.17
2019-06-26T16:48:13.603Z,4.25
2019-06-26T16:53:18.155Z,4.42
2019-06-26T16:58:24.035Z,4.15
2019-06-26T17:03:28.419Z,3.55
2019-06-26T17:08:32.817Z,3.60
2019-06-26T17:13:37.214Z,4.40
2019-06-26T17:18:41.746Z,3.22
2019-06-26T17:23:46.354Z,3.85
2019-06-26T17:28:50.808Z,3.45
2019-06-26T17:33:59.679Z,3.00
2019-06-26T17:39:05.822Z,2.60
2019-06-26T17:44:11.371Z,2.90
2019-06-26T17:49:16.296Z,2.80
2019-06-26T17:54:21.659Z,3.17
2019-06-26T17:59:26.853Z,2.90
2019-06-26T18:04:31.268Z,2.40
2019-06-26T18:09:35.692Z,2.60
2019-06-26T18:14:43.112Z,2.40
2019-06-26T18:19:46.287Z,2.22
2019-06-26T18:24:50.688Z,2.40
2019-06-26T18:29:55.106Z,2.40
2019-06-26T18:34:59.467Z,2.35
2019-06-26T18:40:04.751Z,2.30
2019-06-26T18:45:09.545Z,2.27
2019-06-26T18:50:14.295Z,2.35
2019-06-26T18:55:18.810Z,2.33
2019-06-26T19:00:24.648Z,2.40
2019-06-26T19:05:29.696Z,2.92
2019-06-26T19:10:34.742Z,2.85
2019-06-26T19:15:39.110Z,3.00
2019-06-26T19:20:43.653Z,3.10
2019-06-26T19:25:49.597Z,3.37
2019-06-26T19:30:54.314Z,3.50
2019-06-26T19:35:58.762Z,3.33
2019-06-26T19:41:03.167Z,3.60
2019-06-26T19:46:07.532Z,3.72
2019-06-26T19:51:11.929Z,3.98
2019-06-26T19:56:19.972Z,3.77
2019-06-26T20:01:22.580Z,3.98
2019-06-26T20:06:26.972Z,4.37
2019-06-26T20:11:31.419Z,3.90
2019-06-26T20:16:36.270Z,4.10
